createdAt,value
2019-06-08T04:31:55.235Z,14.00
2019-06-08T04:34:23.735Z,14.10
2019-06-08T04:36:52.177Z,14.20
2019-06-08T04:39:20.618Z,14.20
2019-06-08T04:41:50.757Z,14.20
2019-06-08T04:44:19.427Z,14.30
2019-06-08T04:46:49.480Z,14.40
2019-06-08T04:49:18.108Z,14.40
2019-06-08T04:51:47.681Z,14.40
2019-06-08T04:54:16.761Z,14.50
2019-06-08T04:56:46.953Z,14.40
2019-06-08T04:59:15.342Z,14.30
2019-06-08T05:01:45.102Z,14.40
2019-06-08T05:04:13.669Z,14.50
2019-06-08T05:06:42.991Z,14.40
2019-06-08T05:09:11.500Z,14.40
2019-06-08T05:11:41.092Z,14.50
2019-06-08T05:14:09.636Z,14.50
2019-06-08T05:16:39.113Z,14.40
2019-06-08T05:19:07.779Z,14.60
2019-06-08T05:21:36.212Z,14.70
2019-06-08T05:24:04.709Z,14.60
2019-06-08T05:26:33.147Z,14.60
2019-06-08T05:29:01.573Z,14.50
2019-06-08T05:31:30.015Z,14.60
2019-06-08T05:33:58.435Z,14.60
2019-06-08T05:36:26.876Z,14.60
2019-06-08T05:38:55.293Z,14.80
2019-06-08T05:41:24.317Z,14.90
2019-06-08T05:43:52.860Z,15.00
2019-06-08T05:46:21.305Z,15.00
2019-06-08T05:48:50.301Z,15.10
2019-06-08T05:51:19.003Z,15.10
2019-06-08T05:53:47.928Z,15.00
2019-06-08T05:56:16.449Z,14.90
2019-06-08T05:58:45.978Z,14.90
2019-06-08T06:01:14.548Z,14.80
2019-06-08T06:03:44.444Z,15.00
2019-06-08T06:06:13.144Z,15.20
2019-06-08T06:08:42.475Z,15.30
2019-06-08T06:11:11.084Z,15.50
2019-06-08T06:13:40.575Z,15.60
2019-06-08T06:16:09.329Z,15.60
2019-06-08T06:18:37.823Z,15.50
2019-06-08T06:21:10.958Z,15.50
2019-06-08T06:23:36.432Z,15.60
2019-06-08T06:26:04.880Z,15.60
2019-06-08T06:28:33.390Z,15.70
2019-06-08T06:31:01.861Z,15.50
2019-06-08T06:33:30.408Z,15.60
2019-06-08T06:35:58.841Z,15.50
2019-06-08T06:38:27.273Z,15.60
2019-06-08T06:40:55.700Z,15.50
2019-06-08T06:43:24.145Z,15.40
2019-06-08T06:45:52.576Z,15.50
2019-06-08T06:48:23.396Z,15.50
2019-06-08T06:50:52.343Z,15.60
2019-06-08T06:53:21.119Z,15.60
2019-06-08T06:55:49.544Z,15.60
2019-06-08T06:58:18.009Z,15.70
2019-06-08T07:00:47.482Z,15.70
2019-06-08T07:03:16.160Z,15.70
2019-06-08T07:05:45.710Z,15.50
2019-06-08T07:08:14.300Z,15.40
2019-06-08T07:10:42.736Z,15.40
2019-06-08T07:13:11.185Z,15.50
2019-06-08T07:15:41.815Z,15.50
2019-06-08T07:18:09.796Z,15.60
2019-06-08T07:20:38.223Z,15.70
2019-06-08T07:23:06.677Z,15.70
2019-06-08T07:25:35.167Z,15.50
2019-06-08T07:28:03.613Z,15.50
2019-06-08T07:30:32.044Z,15.50
2019-06-08T07:33:00.473Z,15.60
2019-06-08T07:35:28.976Z,15.70
2019-06-08T07:37:57.408Z,15.80
2019-06-08T07:40:29.568Z,16.00
2019-06-08T07:42:58.043Z,16.20
2019-06-08T07:45:26.473Z,16.20
2019-06-08T07:47:56.024Z,16.00
2019-06-08T07:50:24.693Z,16.10
2019-06-08T07:52:54.537Z,16.30
2019-06-08T07:55:23.144Z,16.20
2019-06-08T07:57:52.239Z,16.20
2019-06-08T08:00:20.972Z,16.40
2019-06-08T08:02:50.171Z,16.40
2019-06-08T08:05:18.727Z,16.50
2019-06-08T08:07:48.296Z,16.60
2019-06-08T08:10:17.458Z,16.80
2019-06-08T08:12:46.024Z,16.90
2019-06-08T08:15:15.089Z,17.10
2019-06-08T08:17:43.511Z,17.30
2019-06-08T08:20:12.888Z,17.20
2019-06-08T08:22:41.312Z,17.10
2019-06-08T08:25:10.702Z,17.20
2019-06-08T08:27:39.147Z,17.30
2019-06-08T08:30:09.296Z,17.20
2019-06-08T08:32:38.130Z,17.30
2019-06-08T08:35:08.773Z,17.70
2019-06-08T08:37:38.029Z,17.90
2019-06-08T08:40:08.062Z,18.10
2019-06-08T08:42:38.641Z,18.30
2019-06-08T08:45:08.762Z,18.30
2019-06-08T08:47:38.731Z,18.20
2019-06-08T08:50:08.728Z,18.00
2019-06-08T08:52:40.496Z,18.00
2019-06-08T08:55:08.355Z,18.20
2019-06-08T08:57:38.553Z,18.40
2019-06-08T09:00:08.666Z,18.40
2019-06-08T09:02:37.513Z,18.40
2019-06-08T09:05:08.663Z,18.20
2019-06-08T09:07:38.572Z,18.00
2019-06-08T09:10:10.112Z,18.10
2019-06-08T09:12:37.906Z,18.10
2019-06-08T09:15:08.582Z,18.10
2019-06-08T09:17:38.811Z,18.20
2019-06-08T09:20:08.877Z,18.00
2019-06-08T09:22:52.542Z,18.10
2019-06-08T09:25:09.187Z,18.30
2019-06-08T09:27:38.280Z,18.40
2019-06-08T09:30:08.321Z,18.40
2019-06-08T09:32:38.245Z,18.50
2019-06-08T09:35:09.425Z,18.80
2019-06-08T09:37:39.583Z,19.00
2019-06-08T09:40:10.675Z,19.20
2019-06-08T09:42:40.819Z,19.10
2019-06-08T09:45:09.973Z,19.20
2019-06-08T09:47:38.468Z,19.00
2019-06-08T09:50:09.319Z,19.00
2019-06-08T09:52:41.035Z,19.10
2019-06-08T09:55:09.815Z,19.10
2019-06-08T09:57:38.551Z,19.30
2019-06-08T10:00:18.079Z,19.60
2019-06-08T10:02:39.493Z,19.70
2019-06-08T10:05:08.160Z,19.70
2019-06-08T10:07:38.837Z,19.70
2019-06-08T10:10:09.830Z,19.60
2019-06-08T10:12:37.799Z,19.60
2019-06-08T10:15:09.668Z,19.80
2019-06-08T10:17:38.286Z,19.80
2019-06-08T10:20:09.841Z,19.90
2019-06-08T10:22:37.305Z,20.00
2019-06-08T10:25:10.849Z,19.90
2019-06-08T10:27:38.614Z,19.90
2019-06-08T10:30:10.637Z,20.20
2019-06-08T10:32:39.315Z,20.40
2019-06-08T10:35:10.503Z,20.40
2019-06-08T10:37:39.515Z,20.50
2019-06-08T10:40:09.469Z,20.70
2019-06-08T10:42:40.130Z,20.60
2019-06-08T10:45:14.274Z,20.50
2019-06-08T10:47:39.763Z,20.50
2019-06-08T10:50:14.713Z,20.70
2019-06-08T10:52:40.249Z,20.90
2019-06-08T10:55:10.387Z,21.20
2019-06-08T10:57:39.582Z,21.40
2019-06-08T11:00:19.896Z,21.70
2019-06-08T11:02:41.104Z,21.80
2019-06-08T11:05:13.610Z,22.00
2019-06-08T11:07:40.005Z,22.20
2019-06-08T11:10:11.843Z,22.40
2019-06-08T11:12:38.832Z,22.70
2019-06-08T11:15:09.679Z,23.00
2019-06-08T11:17:37.915Z,23.20
2019-06-08T11:20:11.830Z,23.10
2019-06-08T11:22:38.325Z,23.10
2019-06-08T11:25:15.149Z,22.60
2019-06-08T11:27:38.769Z,22.30
2019-06-08T11:30:17.966Z,22.40
2019-06-08T11:32:38.891Z,22.90
2019-06-08T11:35:10.706Z,23.30
2019-06-08T11:37:38.724Z,23.50
2019-06-08T11:40:12.248Z,23.20
2019-06-08T11:42:39.410Z,22.90
2019-06-08T11:45:12.696Z,23.10
2019-06-08T11:47:40.359Z,23.30
2019-06-08T11:50:13.075Z,23.60
2019-06-08T11:52:40.762Z,23.80
2019-06-08T11:55:12.738Z,23.70
2019-06-08T11:57:42.344Z,23.80
2019-06-08T12:00:24.174Z,23.70
2019-06-08T12:02:42.537Z,23.80
2019-06-08T12:05:12.923Z,24.10
2019-06-08T12:07:41.326Z,23.90
2019-06-08T12:10:12.497Z,23.80
2019-06-08T12:12:40.005Z,23.70
2019-06-08T12:15:11.574Z,23.60
2019-06-08T12:17:38.876Z,23.70
2019-06-08T12:20:08.536Z,23.50
2019-06-08T12:22:37.767Z,23.20
2019-06-08T12:25:08.186Z,23.30
2019-06-08T12:27:40.180Z,23.10
2019-06-08T12:30:15.936Z,23.10
2019-06-08T12:32:37.341Z,22.90
2019-06-08T12:35:08.180Z,22.80
2019-06-08T12:37:38.566Z,22.70
2019-06-08T12:40:09.806Z,22.70
2019-06-08T12:42:38.217Z,23.00
2019-06-08T12:45:07.349Z,23.40
2019-06-08T12:47:37.917Z,24.00
2019-06-08T12:50:09.045Z,23.90
2019-06-08T12:52:39.105Z,23.80
2019-06-08T12:55:12.692Z,23.70
2019-06-08T12:57:37.793Z,23.70
2019-06-08T13:00:09.857Z,23.80
2019-06-08T13:02:38.590Z,23.90
2019-06-08T13:05:10.649Z,23.80
2019-06-08T13:07:38.596Z,23.50
2019-06-08T13:10:10.939Z,24.10
2019-06-08T13:12:40.971Z,24.10
2019-06-08T13:15:10.142Z,24.10
2019-06-08T13:17:39.773Z,24.00
2019-06-08T13:20:11.271Z,23.80
2019-06-08T13:22:39.697Z,24.00
2019-06-08T13:25:23.710Z,23.90
2019-06-08T13:27:42.911Z,23.70
2019-06-08T13:30:15.428Z,23.20
2019-06-08T13:32:41.932Z,23.10
2019-06-08T13:35:12.207Z,23.30
2019-06-08T13:37:40.723Z,23.50
2019-06-08T13:40:11.365Z,23.70
2019-06-08T13:42:41.348Z,24.30
2019-06-08T13:45:11.442Z,24.90
2019-06-08T13:47:41.379Z,25.20
2019-06-08T13:50:13.048Z,24.80
2019-06-08T13:52:41.803Z,24.40
2019-06-08T13:55:12.844Z,24.00
2019-06-08T13:57:41.356Z,23.70
2019-06-08T14:00:11.499Z,23.90
2019-06-08T14:02:39.977Z,24.00
2019-06-08T14:05:09.076Z,24.50
2019-06-08T14:07:38.107Z,24.90
2019-06-08T14:10:08.327Z,25.10
2019-06-08T14:12:38.446Z,24.70
2019-06-08T14:15:08.652Z,24.70
2019-06-08T14:17:37.832Z,24.70
2019-06-08T14:20:08.037Z,25.10
2019-06-08T14:22:38.858Z,25.50
2019-06-08T14:25:10.567Z,25.60
2019-06-08T14:27:37.513Z,25.50
2019-06-08T14:30:08.399Z,25.30
2019-06-08T14:32:38.119Z,25.30
2019-06-08T14:35:08.753Z,25.00
2019-06-08T14:37:38.074Z,25.20
2019-06-08T14:40:08.264Z,25.50
2019-06-08T14:42:38.358Z,25.60
2019-06-08T14:45:10.641Z,25.90
2019-06-08T14:47:37.860Z,26.20
2019-06-08T14:50:08.053Z,26.20
2019-06-08T14:52:38.096Z,26.20
2019-06-08T14:55:07.969Z,25.90
2019-06-08T14:57:37.452Z,25.50
2019-06-08T15:00:11.933Z,25.40
2019-06-08T15:02:38.847Z,25.30
2019-06-08T15:05:07.904Z,25.10
2019-06-08T15:07:38.811Z,24.60
2019-06-08T15:10:09.983Z,24.50
2019-06-08T15:12:38.446Z,24.70
2019-06-08T15:15:10.739Z,24.80
2019-06-08T15:17:37.982Z,24.60
2019-06-08T15:20:08.814Z,24.70
2019-06-08T15:22:38.950Z,25.20
2019-06-08T15:25:11.063Z,25.30
2019-06-08T15:27:39.046Z,25.00
2019-06-08T15:30:07.762Z,25.20
2019-06-08T15:32:38.548Z,24.90
2019-06-08T15:35:08.107Z,24.90
2019-06-08T15:37:38.095Z,24.80
2019-06-08T15:40:07.811Z,24.80
2019-06-08T15:42:36.354Z,25.00
2019-06-08T15:45:08.600Z,25.40
2019-06-08T15:47:40.475Z,25.50
2019-06-08T15:50:08.870Z,25.30
2019-06-08T15:52:37.822Z,25.20
2019-06-08T15:55:08.469Z,25.20
2019-06-08T15:57:40.876Z,25.40
2019-06-08T16:00:10.159Z,25.60
2019-06-08T16:02:39.226Z,25.70
2019-06-08T16:05:08.747Z,25.60
2019-06-08T16:07:37.173Z,25.40
2019-06-08T16:10:07.588Z,25.00
2019-06-08T16:12:36.034Z,24.80
2019-06-08T16:15:07.930Z,25.00
2019-06-08T16:17:36.361Z,24.80
2019-06-08T16:20:06.384Z,24.50
2019-06-08T16:22:35.973Z,24.30
2019-06-08T16:25:05.922Z,24.10
2019-06-08T16:27:34.373Z,24.10
2019-06-08T16:30:09.343Z,24.00
2019-06-08T16:32:33.537Z,24.00
2019-06-08T16:35:02.179Z,24.20
2019-06-08T16:37:31.644Z,24.20
2019-06-08T16:40:00.492Z,24.10
2019-06-08T16:42:30.135Z,24.20
2019-06-08T16:44:58.690Z,24.20
2019-06-08T16:47:27.169Z,24.30
2019-06-08T16:49:55.598Z,24.40
2019-06-08T16:52:24.016Z,24.70
2019-06-08T16:54:52.444Z,24.70
2019-06-08T16:57:20.894Z,24.40
2019-06-08T16:59:49.375Z,24.10
2019-06-08T17:02:17.799Z,24.00
2019-06-08T17:04:46.227Z,23.80
2019-06-08T17:07:14.663Z,23.90
2019-06-08T17:09:43.266Z,24.00
2019-06-08T17:12:11.796Z,24.20
2019-06-08T17:14:40.692Z,24.30
2019-06-08T17:17:09.367Z,24.20
2019-06-08T17:19:38.455Z,24.20
2019-06-08T17:22:07.094Z,24.20
2019-06-08T17:24:36.738Z,24.10
2019-06-08T17:27:05.344Z,23.80
2019-06-08T17:29:34.901Z,23.80
2019-06-08T17:32:04.298Z,23.80
2019-06-08T17:34:34.573Z,23.80
2019-06-08T17:37:03.047Z,23.80
2019-06-08T17:39:33.838Z,23.80
2019-06-08T17:42:02.373Z,24.00
2019-06-08T17:44:32.005Z,24.00
2019-06-08T17:47:00.987Z,24.10
2019-06-08T17:49:29.580Z,24.30
2019-06-08T17:51:58.016Z,24.20
2019-06-08T17:54:26.474Z,23.80
2019-06-08T17:56:54.909Z,23.90
2019-06-08T17:59:23.336Z,23.80
2019-06-08T18:01:51.789Z,23.70
2019-06-08T18:04:20.243Z,23.50
2019-06-08T18:06:48.875Z,23.50
2019-06-08T18:09:17.895Z,23.50
2019-06-08T18:11:47.965Z,23.40
2019-06-08T18:14:18.117Z,23.30
2019-06-08T18:16:47.963Z,23.30
2019-06-08T18:19:25.260Z,23.20
2019-06-08T18:21:53.864Z,23.10
2019-06-08T18:24:22.412Z,22.90
2019-06-08T18:26:51.721Z,22.90
2019-06-08T18:29:20.312Z,22.80
2019-06-08T18:31:51.388Z,22.80
2019-06-08T18:34:19.954Z,22.70
2019-06-08T18:36:48.555Z,22.70
2019-06-08T18:39:18.346Z,22.50
2019-06-08T18:41:48.379Z,22.40
2019-06-08T18:44:17.588Z,22.30
2019-06-08T18:46:48.223Z,22.00
2019-06-08T18:49:17.887Z,21.80
2019-06-08T18:51:49.227Z,21.70
2019-06-08T18:54:19.225Z,21.60
2019-06-08T18:56:48.814Z,21.50
2019-06-08T18:59:18.973Z,21.20
2019-06-08T19:01:49.854Z,21.00
2019-06-08T19:04:19.069Z,20.90
2019-06-08T19:06:49.952Z,20.70
2019-06-08T19:09:19.463Z,20.60
2019-06-08T19:11:50.200Z,20.30
2019-06-08T19:14:20.828Z,20.10
2019-06-08T19:16:54.422Z,19.90
2019-06-08T19:19:20.396Z,19.80
2019-06-08T19:21:50.429Z,19.60
2019-06-08T19:24:19.690Z,19.50
2019-06-08T19:26:49.038Z,19.40
2019-06-08T19:29:19.408Z,19.30
2019-06-08T19:31:51.204Z,19.30
2019-06-08T19:34:18.642Z,19.40
2019-06-08T19:36:52.169Z,19.10
2019-06-08T19:39:17.978Z,19.00
2019-06-08T19:41:49.183Z,18.80
2019-06-08T19:44:18.335Z,18.80
2019-06-08T19:46:52.015Z,18.80
2019-06-08T19:49:17.682Z,18.60
2019-06-08T19:51:52.454Z,18.50
2019-06-08T19:54:18.608Z,18.50
2019-06-08T19:56:49.849Z,18.40
2019-06-08T19:59:18.351Z,18.30
2019-06-08T20:01:51.373Z,18.40
2019-06-08T20:04:18.279Z,18.20
2019-06-08T20:06:48.000Z,18.20
2019-06-08T20:09:17.562Z,17.80
2019-06-08T20:11:49.463Z,17.70
2019-06-08T20:14:16.345Z,17.60
2019-06-08T20:16:44.984Z,17.70
2019-06-08T20:19:13.542Z,17.80
2019-06-08T20:21:42.899Z,17.80
2019-06-08T20:24:11.831Z,18.00
2019-06-08T20:26:40.349Z,18.00
2019-06-08T20:29:15.531Z,18.00
2019-06-08T20:31:39.115Z,18.00
2019-06-08T20:34:07.792Z,18.00
2019-06-08T20:36:37.592Z,18.10
2019-06-08T20:39:08.202Z,18.00
2019-06-08T20:41:37.681Z,17.90
2019-06-08T20:44:08.478Z,17.90
2019-06-08T20:46:37.777Z,17.70
2019-06-08T20:49:08.332Z,17.80
2019-06-08T20:51:37.450Z,17.90
2019-06-08T20:54:07.933Z,17.80
2019-06-08T20:56:37.229Z,17.80
2019-06-08T20:59:08.032Z,17.60
2019-06-08T21:01:35.960Z,17.70
2019-06-08T21:04:04.487Z,17.70
2019-06-08T21:06:32.976Z,17.60
2019-06-08T21:09:01.420Z,17.70
2019-06-08T21:11:29.845Z,17.70
2019-06-08T21:13:58.308Z,17.80
2019-06-08T21:16:27.670Z,17.70
2019-06-08T21:18:57.919Z,17.60
2019-06-08T21:21:28.387Z,17.40
2019-06-08T21:24:01.159Z,17.30
2019-06-08T21:26:27.128Z,17.20
2019-06-08T21:28:56.681Z,17.20
2019-06-08T21:31:25.793Z,17.20
2019-06-08T21:33:55.713Z,17.20
2019-06-08T21:36:24.368Z,17.20
2019-06-08T21:38:55.313Z,17.20
2019-06-08T21:41:22.964Z,17.20
2019-06-08T21:43:54.235Z,17.20
2019-06-08T21:46:21.583Z,17.10
2019-06-08T21:48:51.602Z,17.10
2019-06-08T21:51:20.159Z,17.10
2019-06-08T21:53:50.007Z,17.00
2019-06-08T21:56:18.756Z,17.10
2019-06-08T21:58:48.674Z,17.00
2019-06-08T22:01:18.572Z,17.00
2019-06-08T22:03:47.202Z,17.00
2019-06-08T22:06:17.566Z,17.00
2019-06-08T22:08:47.985Z,17.00
2019-06-08T22:11:17.722Z,16.70
2019-06-08T22:13:47.682Z,16.70
2019-06-08T22:16:16.345Z,16.60
2019-06-08T22:18:47.326Z,16.60
2019-06-08T22:21:17.889Z,16.70
2019-06-08T22:23:47.458Z,16.70
2019-06-08T22:26:17.607Z,16.70
2019-06-08T22:28:45.520Z,16.70
2019-06-08T22:31:13.988Z,16.70
2019-06-08T22:33:42.458Z,16.60
2019-06-08T22:36:10.899Z,16.60
2019-06-08T22:38:39.325Z,16.50
2019-06-08T22:41:08.212Z,16.40
2019-06-08T22:43:37.446Z,16.30
2019-06-08T22:46:08.242Z,16.10
2019-06-08T22:48:38.355Z,16.10
2019-06-08T22:51:08.064Z,16.10
2019-06-08T22:53:38.401Z,16.20
2019-06-08T22:56:07.917Z,16.10
2019-06-08T22:58:37.300Z,16.00
2019-06-08T23:01:08.700Z,16.10
2019-06-08T23:03:36.169Z,16.00
2019-06-08T23:06:08.188Z,16.00
2019-06-08T23:08:37.321Z,15.90
2019-06-08T23:11:05.716Z,15.90
2019-06-08T23:13:37.534Z,16.10
2019-06-08T23:16:06.255Z,16.00
2019-06-08T23:18:37.311Z,16.00
2019-06-08T23:21:06.523Z,15.90
2019-06-08T23:23:38.019Z,16.00
2019-06-08T23:26:10.242Z,16.00
2019-06-08T23:28:37.695Z,15.90
